createdAt,value
2022-11-05T00:02:05.194Z,96.13
2022-11-05T00:04:50.318Z,96.01
2022-11-05T00:07:38.603Z,95.93
2022-11-05T00:10:06.726Z,94.96
2022-11-05T00:12:51.809Z,95.67
2022-11-05T00:15:36.652Z,96.32
2022-11-05T00:18:03.638Z,95.36
2022-11-05T00:20:30.097Z,95.22
2022-11-05T00:23:22.572Z,95.92
2022-11-05T00:25:59.512Z,95.69
2022-11-05T00:28:26.515Z,96.35
2022-11-05T00:30:53.212Z,96.87
2022-11-05T00:33:19.821Z,97.04
2022-11-05T00:35:46.263Z,97.00
2022-11-05T00:38:12.791Z,96.83
2022-11-05T00:40:39.324Z,97.95
2022-11-05T00:43:24.157Z,97.78
2022-11-05T00:45:50.595Z,97.62
2022-11-05T00:48:35.707Z,96.62
2022-11-05T00:51:02.138Z,96.20
2022-11-05T00:53:28.587Z,95.73
2022-11-05T00:55:55.121Z,95.57
2022-11-05T00:58:22.817Z,95.65
2022-11-05T01:00:55.048Z,95.62
2022-11-05T01:03:24.189Z,95.29
2022-11-05T01:06:07.835Z,95.90
2022-11-05T01:08:34.246Z,95.30
2022-11-05T01:11:00.732Z,94.65
2022-11-05T01:13:31.056Z,95.30
2022-11-05T01:15:57.807Z,94.88
2022-11-05T01:18:25.253Z,94.70
2022-11-05T01:20:52.090Z,95.64
2022-11-05T01:23:19.038Z,96.42
2022-11-05T01:25:45.865Z,96.51
2022-11-05T01:28:12.328Z,96.55
2022-11-05T01:30:39.247Z,96.03
2022-11-05T01:33:06.016Z,96.57
2022-11-05T01:35:32.463Z,96.70
2022-11-05T01:37:58.942Z,96.63
2022-11-05T01:40:25.988Z,96.75
2022-11-05T01:42:52.771Z,96.01
2022-11-05T01:45:22.037Z,96.09
2022-11-05T01:47:57.875Z,96.48
2022-11-05T01:50:35.958Z,97.07
2022-11-05T01:53:32.595Z,97.17
2022-11-05T01:56:05.565Z,97.95
2022-11-05T01:58:42.172Z,97.94
2022-11-05T02:01:08.771Z,98.32
2022-11-05T02:03:36.080Z,97.97
2022-11-05T02:06:03.853Z,96.93
2022-11-05T02:08:48.959Z,97.13
2022-11-05T02:11:18.248Z,96.91
2022-11-05T02:13:44.946Z,96.21
2022-11-05T02:16:33.238Z,95.96
2022-11-05T02:19:29.457Z,95.81
2022-11-05T02:22:29.758Z,95.62
2022-11-05T02:25:24.243Z,95.57
2022-11-05T02:28:09.524Z,95.23
2022-11-05T02:30:41.208Z,94.80
2022-11-05T02:33:19.454Z,94.46
2022-11-05T02:36:06.807Z,94.02
2022-11-05T02:38:45.089Z,93.69
2022-11-05T02:41:27.479Z,93.18
2022-11-05T02:44:11.364Z,92.85
2022-11-05T02:47:05.935Z,93.21
2022-11-05T02:49:53.322Z,92.65
2022-11-05T02:52:32.709Z,92.95
2022-11-05T02:55:25.397Z,92.92
2022-11-05T02:57:51.827Z,93.27
2022-11-05T03:00:33.943Z,93.79
2022-11-05T03:03:00.604Z,93.93
2022-11-05T03:05:39.675Z,94.59
2022-11-05T03:08:15.381Z,95.11
2022-11-05T03:11:01.457Z,95.32
2022-11-05T03:13:53.675Z,95.48
2022-11-05T03:16:42.196Z,95.58
2022-11-05T03:19:22.077Z,95.91
2022-11-05T03:21:56.305Z,96.01
2022-11-05T03:24:35.458Z,96.46
2022-11-05T03:27:10.739Z,96.96
2022-11-05T03:29:44.400Z,97.45
2022-11-05T03:32:14.215Z,97.72
2022-11-05T03:34:56.807Z,98.31
2022-11-05T03:37:27.117Z,98.55
2022-11-05T03:39:57.925Z,98.71
2022-11-05T03:42:26.797Z,99.19
2022-11-05T03:44:58.133Z,99.52
2022-11-05T03:47:30.144Z,99.63
2022-11-05T03:50:11.712Z,99.83
2022-11-05T03:52:45.805Z,100.00
2022-11-05T03:55:12.721Z,100.00
2022-11-05T03:57:43.023Z,100.00
2022-11-05T04:00:10.943Z,100.00
2022-11-05T04:02:37.758Z,100.00
2022-11-05T04:05:05.233Z,100.00
2022-11-05T04:07:50.308Z,100.00
2022-11-05T04:10:35.600Z,99.98
2022-11-05T04:13:20.568Z,99.54
2022-11-05T04:16:05.403Z,100.00
2022-11-05T04:18:31.790Z,100.00
2022-11-05T04:21:16.594Z,100.00
2022-11-05T04:24:01.531Z,100.00
2022-11-05T04:26:27.960Z,100.00
2022-11-05T04:29:13.096Z,100.00
2022-11-05T04:31:39.658Z,100.00
2022-11-05T04:34:06.135Z,100.00
2022-11-05T04:36:32.724Z,100.00
2022-11-05T04:38:59.232Z,100.00
2022-11-05T04:41:26.552Z,100.00
2022-11-05T04:43:53.019Z,100.00
2022-11-05T04:46:19.415Z,100.00
2022-11-05T04:48:45.854Z,100.00
2022-11-05T04:51:12.315Z,100.00
2022-11-05T04:53:38.763Z,100.00
2022-11-05T04:56:22.739Z,100.00
2022-11-05T04:58:49.779Z,100.00
2022-11-05T05:01:21.961Z,100.00
2022-11-05T05:03:52.771Z,100.00
2022-11-05T05:06:20.024Z,100.00
2022-11-05T05:08:48.160Z,100.00
2022-11-05T05:11:17.309Z,100.00
2022-11-05T05:13:43.975Z,100.00
2022-11-05T05:16:18.989Z,100.00
2022-11-05T05:18:46.581Z,100.00
2022-11-05T05:21:32.603Z,100.00
2022-11-05T05:23:59.047Z,100.00
2022-11-05T05:26:25.830Z,100.00
2022-11-05T05:28:53.522Z,100.00
2022-11-05T05:31:21.115Z,100.00
2022-11-05T05:33:47.884Z,100.00
2022-11-05T05:36:14.882Z,100.00
2022-11-05T05:38:41.284Z,100.00
2022-11-05T05:41:07.689Z,100.00
2022-11-05T05:43:34.324Z,100.00
2022-11-05T05:46:10.852Z,100.00
2022-11-05T05:48:39.956Z,100.00
2022-11-05T05:51:11.436Z,100.00
2022-11-05T05:53:38.755Z,100.00
2022-11-05T05:56:05.804Z,100.00
2022-11-05T05:58:38.476Z,100.00
2022-11-05T06:01:07.392Z,100.00
2022-11-05T06:03:34.738Z,100.00
2022-11-05T06:06:03.260Z,100.00
2022-11-05T06:08:30.308Z,100.00
2022-11-05T06:10:57.017Z,100.00
2022-11-05T06:13:23.656Z,100.00
2022-11-05T06:15:50.110Z,100.00
2022-11-05T06:18:16.530Z,100.00
2022-11-05T06:20:43.269Z,100.00
2022-11-05T06:23:10.103Z,100.00
2022-11-05T06:25:41.061Z,100.00
2022-11-05T06:28:07.973Z,100.00
2022-11-05T06:30:34.430Z,100.00
2022-11-05T06:33:05.405Z,100.00
2022-11-05T06:35:32.262Z,100.00
2022-11-05T06:38:02.398Z,100.00
2022-11-05T06:40:29.055Z,100.00
2022-11-05T06:42:55.638Z,100.00
2022-11-05T06:45:22.075Z,100.00
2022-11-05T06:47:48.480Z,100.00
2022-11-05T06:50:15.033Z,100.00
2022-11-05T06:52:41.535Z,100.00
2022-11-05T06:55:08.413Z,100.00
2022-11-05T06:57:37.528Z,100.00
2022-11-05T07:00:07.811Z,100.00
2022-11-05T07:02:35.766Z,100.00
2022-11-05T07:05:02.202Z,100.00
2022-11-05T07:07:28.594Z,100.00
2022-11-05T07:09:55.038Z,100.00
2022-11-05T07:12:21.494Z,100.00
2022-11-05T07:14:47.917Z,100.00
2022-11-05T07:17:17.509Z,100.00
2022-11-05T07:19:43.967Z,100.00
2022-11-05T07:22:10.384Z,100.00
2022-11-05T07:24:37.078Z,100.00
2022-11-05T07:27:03.657Z,100.00
2022-11-05T07:29:30.094Z,100.00
2022-11-05T07:31:56.562Z,100.00
2022-11-05T07:34:23.034Z,100.00
2022-11-05T07:36:49.480Z,100.00
2022-11-05T07:39:15.964Z,100.00
2022-11-05T07:41:42.447Z,100.00
2022-11-05T07:44:08.904Z,100.00
2022-11-05T07:46:35.358Z,100.00
2022-11-05T07:49:01.905Z,100.00
2022-11-05T07:51:28.332Z,100.00
2022-11-05T07:53:54.795Z,100.00
2022-11-05T07:56:21.515Z,100.00
2022-11-05T07:58:47.993Z,100.00
2022-11-05T08:01:14.608Z,100.00
2022-11-05T08:03:41.249Z,100.00
2022-11-05T08:06:07.763Z,100.00
2022-11-05T08:08:35.281Z,100.00
2022-11-05T08:11:06.648Z,100.00
2022-11-05T08:13:34.240Z,100.00
2022-11-05T08:16:02.015Z,100.00
2022-11-05T08:18:32.592Z,99.90
2022-11-05T08:21:00.804Z,99.11
2022-11-05T08:23:28.406Z,98.29
2022-11-05T08:25:55.656Z,97.10
2022-11-05T08:28:23.460Z,95.94
2022-11-05T08:30:55.319Z,94.85
2022-11-05T08:33:23.537Z,93.74
2022-11-05T08:35:50.609Z,92.93
2022-11-05T08:38:18.854Z,92.49
2022-11-05T08:40:53.920Z,91.89
2022-11-05T08:43:20.781Z,90.30
2022-11-05T08:45:47.334Z,88.06
2022-11-05T08:48:16.791Z,86.27
2022-11-05T08:50:44.562Z,84.30
2022-11-05T08:53:11.855Z,82.37
2022-11-05T08:55:38.728Z,81.04
2022-11-05T08:58:07.619Z,79.75
2022-11-05T09:00:37.047Z,79.04
2022-11-05T09:03:06.684Z,78.47
2022-11-05T09:05:40.519Z,78.65
2022-11-05T09:08:08.782Z,78.46
2022-11-05T09:10:35.938Z,78.86
2022-11-05T09:13:02.587Z,78.57
2022-11-05T09:15:29.428Z,79.04
2022-11-05T09:17:55.952Z,78.45
2022-11-05T09:20:23.249Z,78.27
2022-11-05T09:22:49.818Z,77.00
2022-11-05T09:25:16.513Z,76.49
2022-11-05T09:27:43.823Z,75.19
2022-11-05T09:30:12.325Z,73.71
2022-11-05T09:32:39.131Z,73.43
2022-11-05T09:35:07.001Z,72.80
2022-11-05T09:37:33.925Z,72.19
2022-11-05T09:40:00.511Z,71.55
2022-11-05T09:42:35.344Z,70.84
2022-11-05T09:45:18.846Z,71.00
2022-11-05T09:47:59.734Z,71.49
2022-11-05T09:50:34.740Z,71.22
2022-11-05T09:53:01.896Z,71.40
2022-11-05T09:55:37.028Z,72.13
2022-11-05T09:58:16.290Z,72.28
2022-11-05T10:00:44.489Z,72.82
2022-11-05T10:03:17.682Z,73.36
2022-11-05T10:05:45.648Z,72.73
2022-11-05T10:08:34.541Z,73.05
2022-11-05T10:11:15.352Z,74.31
2022-11-05T10:13:54.357Z,73.61
2022-11-05T10:16:25.706Z,73.34
2022-11-05T10:19:24.504Z,73.35
2022-11-05T10:22:12.815Z,73.75
2022-11-05T10:24:49.146Z,73.27
2022-11-05T10:27:25.753Z,72.95
2022-11-05T10:29:52.897Z,72.69
2022-11-05T10:32:34.807Z,72.98
2022-11-05T10:35:04.057Z,71.57
2022-11-05T10:37:32.929Z,72.12
2022-11-05T10:40:00.834Z,72.46
2022-11-05T10:42:41.787Z,72.38
2022-11-05T10:45:44.839Z,72.26
2022-11-05T10:48:30.010Z,72.48
2022-11-05T10:50:57.642Z,72.58
2022-11-05T10:53:36.298Z,72.33
2022-11-05T10:56:03.153Z,72.86
2022-11-05T10:58:32.635Z,73.08
2022-11-05T11:00:59.084Z,71.41
2022-11-05T11:03:46.475Z,71.04
2022-11-05T11:06:37.669Z,70.60
2022-11-05T11:09:08.550Z,70.18
2022-11-05T11:11:40.609Z,69.04
2022-11-05T11:14:22.084Z,68.86
2022-11-05T11:16:51.259Z,69.71
2022-11-05T11:19:25.510Z,70.08
2022-11-05T11:22:13.589Z,70.05
2022-11-05T11:24:51.795Z,68.78
2022-11-05T11:27:23.221Z,68.33
2022-11-05T11:29:56.956Z,69.93
2022-11-05T11:32:28.506Z,68.27
2022-11-05T11:34:58.112Z,68.65
2022-11-05T11:37:28.645Z,68.30
2022-11-05T11:39:57.003Z,67.33
2022-11-05T11:42:33.972Z,67.22
2022-11-05T11:45:15.826Z,67.42
2022-11-05T11:47:48.924Z,68.30
2022-11-05T11:50:33.545Z,68.51
2022-11-05T11:53:20.271Z,69.23
2022-11-05T11:55:56.005Z,69.22
2022-11-05T11:58:25.605Z,69.17
2022-11-05T12:01:01.807Z,69.80
2022-11-05T12:03:44.619Z,69.52
2022-11-05T12:06:38.115Z,69.56
2022-11-05T12:09:35.213Z,70.03
2022-11-05T12:12:14.038Z,70.44
2022-11-05T12:15:03.580Z,70.26
2022-11-05T12:17:53.472Z,70.88
2022-11-05T12:20:31.948Z,70.94
2022-11-05T12:23:13.469Z,71.49
2022-11-05T12:25:57.825Z,71.24
2022-11-05T12:28:57.717Z,70.73
2022-11-05T12:31:44.399Z,71.75
2022-11-05T12:34:31.059Z,71.72
2022-11-05T12:37:12.953Z,70.89
2022-11-05T12:40:06.780Z,70.07
2022-11-05T12:42:45.272Z,70.64
2022-11-05T12:45:39.222Z,69.84
2022-11-05T12:48:17.603Z,69.90
2022-11-05T12:50:52.552Z,69.40
2022-11-05T12:53:52.668Z,67.46
2022-11-05T12:56:33.555Z,67.51
2022-11-05T12:59:18.292Z,68.13
2022-11-05T13:01:56.504Z,68.03
2022-11-05T13:04:43.549Z,68.01
2022-11-05T13:07:13.731Z,68.13
2022-11-05T13:09:47.871Z,68.63
2022-11-05T13:12:17.022Z,68.51
2022-11-05T13:14:59.266Z,69.06
2022-11-05T13:17:35.477Z,68.40
2022-11-05T13:20:17.672Z,68.29
2022-11-05T13:23:03.908Z,68.63
2022-11-05T13:25:35.572Z,68.48
2022-11-05T13:28:23.914Z,67.84
2022-11-05T13:30:54.567Z,66.95
2022-11-05T13:33:29.100Z,66.69
2022-11-05T13:36:50.281Z,65.25
2022-11-05T13:39:28.724Z,65.36
2022-11-05T13:42:10.355Z,66.41
2022-11-05T13:44:59.894Z,65.81
2022-11-05T13:47:44.752Z,66.04
2022-11-05T13:50:29.322Z,66.31
2022-11-05T13:53:11.133Z,65.88
2022-11-05T13:55:47.513Z,65.54
2022-11-05T13:59:08.634Z,65.21
2022-11-05T14:01:49.882Z,65.68
2022-11-05T14:04:26.521Z,65.87
2022-11-05T14:06:54.310Z,66.48
2022-11-05T14:09:25.906Z,65.98
2022-11-05T14:11:55.835Z,67.21
2022-11-05T14:14:32.683Z,66.10
2022-11-05T14:17:07.910Z,66.01
2022-11-05T14:19:48.783Z,65.32
2022-11-05T14:22:36.574Z,66.16
2022-11-05T14:25:18.374Z,65.77
2022-11-05T14:27:52.479Z,65.74
2022-11-05T14:30:42.753Z,65.43
2022-11-05T14:33:31.554Z,65.99
2022-11-05T14:36:24.267Z,66.22
2022-11-05T14:38:52.474Z,66.90
2022-11-05T14:41:21.124Z,66.17
2022-11-05T14:43:55.455Z,66.03
2022-11-05T14:46:22.045Z,65.86
2022-11-05T14:48:53.092Z,66.04
2022-11-05T14:51:40.319Z,65.47
2022-11-05T14:54:20.400Z,65.25
2022-11-05T14:57:02.474Z,65.77
2022-11-05T14:59:29.041Z,65.58
2022-11-05T15:02:03.462Z,66.54
2022-11-05T15:04:45.444Z,66.20
2022-11-05T15:07:29.607Z,65.60
2022-11-05T15:10:07.147Z,65.69
2022-11-05T15:12:36.352Z,65.54
2022-11-05T15:15:21.572Z,65.26
2022-11-05T15:17:58.234Z,65.37
2022-11-05T15:20:40.016Z,65.63
2022-11-05T15:23:12.735Z,65.22
2022-11-05T15:26:10.617Z,65.63
2022-11-05T15:28:40.440Z,65.51
2022-11-05T15:31:13.067Z,65.04
2022-11-05T15:33:44.696Z,65.66
2022-11-05T15:36:30.814Z,65.48
2022-11-05T15:41:45.100Z,65.39
2022-11-05T15:44:28.676Z,65.42
2022-11-05T15:47:23.060Z,66.04
2022-11-05T15:50:14.735Z,66.46
2022-11-05T15:52:49.839Z,66.46
2022-11-05T15:55:24.038Z,66.90
2022-11-05T15:57:56.802Z,67.46
2022-11-05T16:00:31.974Z,67.44
2022-11-05T16:03:00.532Z,67.65
2022-11-05T16:05:30.089Z,67.99
2022-11-05T16:08:01.217Z,68.39
2022-11-05T16:10:33.582Z,68.52
2022-11-05T16:13:37.497Z,68.77
2022-11-05T16:16:25.818Z,68.86
2022-11-05T16:18:52.824Z,69.14
2022-11-05T16:21:23.375Z,69.16
2022-11-05T16:23:49.834Z,69.65
2022-11-05T16:27:01.175Z,70.00
2022-11-05T16:29:28.309Z,70.31
2022-11-05T16:31:56.473Z,70.31
2022-11-05T16:34:27.803Z,70.90
2022-11-05T16:36:56.359Z,71.06
2022-11-05T16:39:22.911Z,71.29
2022-11-05T16:41:49.495Z,71.36
2022-11-05T16:44:16.134Z,71.60
2022-11-05T16:46:47.113Z,71.90
2022-11-05T16:49:14.044Z,72.02
2022-11-05T16:51:40.817Z,71.83
2022-11-05T16:54:07.504Z,72.13
2022-11-05T16:56:34.193Z,72.26
2022-11-05T16:59:00.703Z,72.61
2022-11-05T17:01:28.035Z,73.00
2022-11-05T17:03:54.568Z,73.22
2022-11-05T17:06:22.070Z,73.34
2022-11-05T17:08:48.691Z,73.39
2022-11-05T17:11:18.074Z,73.93
2022-11-05T17:13:44.680Z,73.98
2022-11-05T17:16:13.074Z,74.39
2022-11-05T17:18:41.004Z,74.41
2022-11-05T17:21:08.980Z,74.56
2022-11-05T17:23:35.843Z,74.62
2022-11-05T17:26:09.790Z,74.82
2022-11-05T17:28:37.834Z,74.94
2022-11-05T17:31:06.820Z,75.30
2022-11-05T17:33:33.563Z,75.13
2022-11-05T17:36:00.272Z,75.54
2022-11-05T17:38:27.203Z,75.72
2022-11-05T17:40:54.015Z,75.94
2022-11-05T17:43:20.518Z,75.93
2022-11-05T17:45:51.992Z,75.90
2022-11-05T17:48:20.038Z,75.94
2022-11-05T17:50:48.919Z,76.20
2022-11-05T17:53:17.866Z,75.98
2022-11-05T17:55:46.098Z,75.84
2022-11-05T17:58:12.786Z,76.02
2022-11-05T18:00:40.835Z,76.21
2022-11-05T18:03:07.427Z,76.09
2022-11-05T18:05:34.681Z,76.04
2022-11-05T18:08:01.456Z,76.60
2022-11-05T18:10:27.900Z,76.49
2022-11-05T18:12:54.567Z,77.15
2022-11-05T18:15:21.513Z,77.06
2022-11-05T18:17:47.967Z,77.25
2022-11-05T18:20:19.107Z,77.46
2022-11-05T18:22:48.076Z,77.83
2022-11-05T18:25:14.710Z,77.69
2022-11-05T18:27:41.646Z,77.85
2022-11-05T18:30:09.642Z,77.79
2022-11-05T18:32:36.878Z,77.83
2022-11-05T18:35:04.025Z,77.73
2022-11-05T18:37:30.547Z,77.69
2022-11-05T18:39:57.000Z,77.96
2022-11-05T18:42:23.795Z,77.74
2022-11-05T18:44:50.262Z,77.60
2022-11-05T18:47:16.916Z,77.64
2022-11-05T18:49:43.349Z,77.75
2022-11-05T18:52:09.816Z,77.95
2022-11-05T18:54:36.485Z,77.80
2022-11-05T18:57:03.072Z,77.69
2022-11-05T18:59:37.790Z,77.92
2022-11-05T19:02:06.104Z,77.77
2022-11-05T19:04:32.851Z,78.13
2022-11-05T19:07:04.543Z,77.90
2022-11-05T19:09:32.120Z,77.80
2022-11-05T19:11:58.722Z,77.77
2022-11-05T19:14:25.269Z,77.90
2022-11-05T19:16:51.748Z,77.55
2022-11-05T19:19:18.234Z,77.29
2022-11-05T19:21:44.915Z,77.57
2022-11-05T19:24:16.668Z,77.55
2022-11-05T19:26:43.478Z,77.39
2022-11-05T19:29:10.020Z,77.38
2022-11-05T19:31:36.988Z,77.21
2022-11-05T19:34:05.297Z,77.19
2022-11-05T19:36:33.314Z,77.30
2022-11-05T19:39:04.982Z,77.19
2022-11-05T19:41:31.521Z,76.76
2022-11-05T19:43:59.189Z,77.07
2022-11-05T19:46:26.110Z,77.09
2022-11-05T19:48:53.164Z,77.26
2022-11-05T19:51:28.220Z,77.29
2022-11-05T19:53:55.787Z,77.38
2022-11-05T19:56:27.777Z,77.08
2022-11-05T19:58:54.420Z,77.14
2022-11-05T20:01:22.661Z,77.04
2022-11-05T20:03:50.320Z,77.20
2022-11-05T20:06:20.493Z,77.01
2022-11-05T20:09:19.509Z,77.33
2022-11-05T20:11:37.395Z,77.25
2022-11-05T20:14:04.923Z,77.27
2022-11-05T20:16:37.811Z,77.19
2022-11-05T20:19:07.004Z,77.44
2022-11-05T20:21:34.076Z,77.47
2022-11-05T20:24:00.814Z,77.46
2022-11-05T20:26:27.571Z,77.18
2022-11-05T20:28:54.577Z,77.13
2022-11-05T20:31:21.550Z,76.89
2022-11-05T20:33:48.146Z,76.93
2022-11-05T20:36:17.177Z,76.76
2022-11-05T20:38:51.165Z,76.71
2022-11-05T20:41:18.265Z,76.60
2022-11-05T20:43:45.444Z,76.72
2022-11-05T20:46:14.505Z,76.55
2022-11-05T20:48:41.826Z,76.54
2022-11-05T20:51:11.757Z,76.75
2022-11-05T20:53:38.660Z,76.68
2022-11-05T20:56:08.587Z,76.88
2022-11-05T20:58:37.087Z,77.02
2022-11-05T21:01:05.645Z,76.86
2022-11-05T21:03:32.604Z,76.89
2022-11-05T21:06:04.019Z,77.97
2022-11-05T21:08:30.667Z,77.07
2022-11-05T21:10:57.437Z,77.04
2022-11-05T21:13:25.012Z,76.81
2022-11-05T21:15:54.327Z,76.72
2022-11-05T21:18:23.306Z,76.98
2022-11-05T21:20:50.740Z,76.99
2022-11-05T21:23:18.063Z,77.05
2022-11-05T21:25:45.113Z,76.81
2022-11-05T21:28:13.257Z,76.73
2022-11-05T21:30:42.300Z,76.88
2022-11-05T21:33:09.166Z,76.68
2022-11-05T21:35:46.182Z,76.78
2022-11-05T21:38:14.562Z,76.84
2022-11-05T21:40:41.648Z,76.94
2022-11-05T21:43:08.737Z,77.44
2022-11-05T21:45:37.573Z,77.39
2022-11-05T21:48:04.182Z,77.49
2022-11-05T21:50:51.318Z,77.33
2022-11-05T21:53:36.815Z,77.27
2022-11-05T21:56:26.755Z,77.51
2022-11-05T21:59:11.523Z,77.70
2022-11-05T22:01:38.111Z,77.71
2022-11-05T22:04:04.921Z,77.84
2022-11-05T22:06:34.422Z,77.76
2022-11-05T22:09:00.868Z,77.88
2022-11-05T22:11:27.499Z,77.85
2022-11-05T22:13:54.010Z,78.06
2022-11-05T22:16:20.509Z,78.51
2022-11-05T22:18:46.978Z,78.69
2022-11-05T22:21:19.465Z,79.20
2022-11-05T22:23:45.961Z,79.17
2022-11-05T22:26:12.640Z,79.42
2022-11-05T22:28:39.101Z,78.56
2022-11-05T22:31:15.151Z,79.20
2022-11-05T22:33:42.318Z,78.72
2022-11-05T22:36:09.648Z,79.67
2022-11-05T22:38:36.298Z,79.14
2022-11-05T22:41:10.040Z,79.31
2022-11-05T22:43:36.977Z,79.23
2022-11-05T22:46:18.923Z,79.86
2022-11-05T22:48:45.974Z,80.01
2022-11-05T22:51:15.139Z,79.09
2022-11-05T22:53:42.247Z,80.00
2022-11-05T22:56:11.663Z,79.71
2022-11-05T22:58:38.995Z,79.34
2022-11-05T23:01:08.038Z,79.77
2022-11-05T23:03:35.273Z,79.90
2022-11-05T23:06:04.867Z,80.05
2022-11-05T23:08:50.933Z,80.30
2022-11-05T23:11:38.788Z,80.42
2022-11-05T23:14:07.531Z,79.67
2022-11-05T23:16:53.262Z,80.63
2022-11-05T23:19:39.812Z,80.41
2022-11-05T23:22:32.912Z,80.93
2022-11-05T23:24:59.621Z,80.19
2022-11-05T23:27:29.914Z,80.75
2022-11-05T23:30:01.110Z,80.47
2022-11-05T23:32:30.814Z,79.94
2022-11-05T23:34:58.777Z,80.04
2022-11-05T23:37:48.777Z,79.94
2022-11-05T23:40:19.291Z,80.66
2022-11-05T23:43:04.807Z,80.14
2022-11-05T23:45:50.752Z,79.88
2022-11-05T23:48:17.342Z,81.06
2022-11-05T23:50:51.750Z,81.25
2022-11-05T23:53:18.872Z,80.50
2022-11-05T23:55:45.501Z,80.30
2022-11-05T23:58:12.431Z,80.38
